Time,TemperatureF,DewpointF,PressureIn,WindDirection,WindDirectionDegrees,WindSpeedMPH,WindSpeedGustMPH,Humidity,HourlyPrecipIn,Conditions,Clouds,dailyrainin,SoftwareType,DateUTC
2013-07-10 00:02:00,80.8,74.4,29.86,North,4,5.0,7.0,81,0.00,,OVC250,0.00,VWS V14.01,2013-07-10 05:02:00,
2013-07-10 00:07:00,80.7,74.3,29.86,NNE,24,5.0,6.0,81,0.00,,OVC250,0.00,VWS V14.01,2013-07-10 05:07:00,
2013-07-10 00:12:00,80.5,74.1,29.86,NNE,12,3.0,5.0,81,0.00,,OVC250,0.00,VWS V14.01,2013-07-10 05:12:00,
2013-07-10 00:17:00,80.4,74.0,29.86,NNE,14,4.0,5.0,81,0.00,,OVC250,0.00,VWS V14.01,2013-07-10 05:17:00,
2013-07-10 00:22:00,80.2,73.8,29.86,North,4,4.0,7.0,81,0.00,,OVC250,0.00,VWS V14.01,2013-07-10 05:22:00,
2013-07-10 00:27:00,79.9,73.9,29.86,North,10,2.0,8.0,82,0.00,,OVC250,0.00,VWS V14.01,2013-07-10 05:27:00,
2013-07-10 00:32:00,79.6,73.6,29.86,NNE,13,6.0,8.0,82,0.00,,OVC250,0.00,VWS V14.01,2013-07-10 05:32:00,
2013-07-10 00:37:00,79.5,73.5,29.85,NNE,17,3.0,6.0,82,0.00,,OVC250,0.00,VWS V14.01,2013-07-10 05:37:00,
2013-07-10 00:42:00,79.3,73.3,29.85,NNE,16,5.0,6.0,82,0.00,,BKN250,0.00,VWS V14.01,2013-07-10 05:42:00,
2013-07-10 00:47:00,79.1,73.5,29.85,NNE,18,3.0,8.0,83,0.00,,BKN250,0.00,VWS V14.01,2013-07-10 05:47:00,
2013-07-10 00:52:00,79.0,73.4,29.85,NNE,13,5.0,9.0,83,0.00,,BKN250,0.00,VWS V14.01,2013-07-10 05:52:00,
2013-07-10 00:57:00,78.9,73.7,29.85,North,9,3.0,7.0,84,0.00,,BKN250,0.00,VWS V14.01,2013-07-10 05:57:00,
2013-07-10 01:02:00,78.8,73.2,29.86,North,11,3.0,7.0,83,0.00,,BKN250,0.00,VWS V14.01,2013-07-10 06:02:00,
2013-07-10 01:07:00,78.7,73.1,29.86,NNW,336,2.0,7.0,83,0.00,,BKN250,0.00,VWS V14.01,2013-07-10 06:07:00,
2013-07-10 01:12:00,78.7,73.1,29.86,NNW,345,3.0,6.0,83,0.00,,BKN250,0.00,VWS V14.01,2013-07-10 06:12:00,
2013-07-10 01:17:00,78.6,72.7,29.87,NNE,31,4.0,9.0,82,0.00,,BKN250,0.00,VWS V14.01,2013-07-10 06:17:00,
2013-07-10 01:22:00,78.6,72.3,29.87,North,4,5.0,8.0,81,0.00,,BKN250,0.00,VWS V14.01,2013-07-10 06:22:00,
2013-07-10 01:28:00,78.5,72.2,29.87,NNE,27,1.0,7.0,81,0.00,,BKN250,0.00,VWS V14.01,2013-07-10 06:28:00,
2013-07-10 01:33:00,78.5,71.8,29.88,North,354,3.0,8.0,80,0.00,,BKN250,0.00,VWS V14.01,2013-07-10 06:33:00,
2013-07-10 01:38:00,78.4,71.7,29.88,North,11,3.0,6.0,80,0.00,,BKN250,0.00,VWS V14.01,2013-07-10 06:38:00,
2013-07-10 01:43:00,78.3,71.6,29.88,NNE,21,5.0,7.0,80,0.00,,SCT200,0.00,VWS V14.01,2013-07-10 06:43:00,
2013-07-10 01:48:00,78.2,71.2,29.88,NNE,24,4.0,11.0,79,0.00,,SCT200,0.00,VWS V14.01,2013-07-10 06:48:00,
2013-07-10 01:53:00,78.0,71.3,29.88,NNE,14,6.0,12.0,80,0.00,,SCT200,0.00,VWS V14.01,2013-07-10 06:53:00,
2013-07-10 01:58:00,77.9,71.2,29.88,NNE,19,2.0,8.0,80,0.00,,SCT200,0.00,VWS V14.01,2013-07-10 06:58:00,
2013-07-10 02:03:00,77.8,71.1,29.88,NNE,14,8.0,8.0,80,0.00,,SCT200,0.00,VWS V14.01,2013-07-10 07:03:00,
2013-07-10 02:08:00,77.6,70.9,29.89,North,359,5.0,6.0,80,0.00,,SCT200,0.00,VWS V14.01,2013-07-10 07:08:00,
2013-07-10 02:13:00,77.4,70.8,29.89,North,9,6.0,7.0,80,0.00,,SCT200,0.00,VWS V14.01,2013-07-10 07:13:00,
2013-07-10 02:18:00,77.3,70.3,29.89,NNE,31,1.0,3.0,79,0.00,,SCT200,0.00,VWS V14.01,2013-07-10 07:18:00,
2013-07-10 02:23:00,77.2,70.2,29.90,NNE,22,4.0,4.0,79,0.00,,SCT200,0.00,VWS V14.01,2013-07-10 07:23:00,
2013-07-10 02:28:00,77.1,70.1,29.91,North,359,6.0,6.0,79,0.00,,SCT200,0.00,VWS V14.01,2013-07-10 07:28:00,
2013-07-10 02:33:00,77.1,70.1,29.91,NNE,16,5.0,6.0,79,0.00,,SCT200,0.00,VWS V14.01,2013-07-10 07:33:00,
2013-07-10 02:38:00,77.1,70.1,29.91,North,11,3.0,5.0,79,0.00,,SCT200,0.00,VWS V14.01,2013-07-10 07:38:00,
2013-07-10 02:43:00,77.1,69.7,29.91,North,9,3.0,6.0,78,0.00,,SCT200,0.00,VWS V14.01,2013-07-10 07:43:00,
2013-07-10 02:48:00,77.0,69.6,29.91,North,4,2.0,5.0,78,0.00,,SCT200,0.00,VWS V14.01,2013-07-10 07:48:00,
2013-07-10 02:53:00,77.0,69.6,29.91,NNW,335,2.0,4.0,78,0.00,,SCT200,0.00,VWS V14.01,2013-07-10 07:53:00,
2013-07-10 02:58:00,76.9,69.5,29.91,NE,39,4.0,7.0,78,0.00,,SCT200,0.00,VWS V14.01,2013-07-10 07:58:00,
2013-07-10 03:03:00,76.9,69.5,29.91,NNE,16,3.0,5.0,78,0.00,,SCT200,0.00,VWS V14.01,2013-07-10 08:03:00,
2013-07-10 03:08:00,76.8,69.8,29.91,North,354,0.0,2.0,79,0.00,,SCT200,0.00,VWS V14.01,2013-07-10 08:08:00,
2013-07-10 03:13:00,76.7,69.7,29.92,NNE,21,0.0,3.0,79,0.00,,SCT200,0.00,VWS V14.01,2013-07-10 08:13:00,
2013-07-10 03:18:00,76.6,69.6,29.91,North,359,1.0,3.0,79,0.00,,SCT200,0.00,VWS V14.01,2013-07-10 08:18:00,
2013-07-10 03:23:00,76.5,69.5,29.92,North,4,3.0,5.0,79,0.00,,SCT200,0.00,VWS V14.01,2013-07-10 08:23:00,
2013-07-10 03:28:00,76.4,69.4,29.92,NNE,24,5.0,6.0,79,0.00,,SCT200,0.00,VWS V14.01,2013-07-10 08:28:00,
2013-07-10 03:33:00,76.4,69.4,29.91,NNE,26,3.0,5.0,79,0.00,,SCT200,0.00,VWS V14.01,2013-07-10 08:33:00,
2013-07-10 03:38:00,76.4,69.4,29.91,NNE,14,3.0,7.0,79,0.00,,SCT200,0.00,VWS V14.01,2013-07-10 08:38:00,
2013-07-10 03:43:00,76.3,69.3,29.91,North,8,2.0,4.0,79,0.00,,FEW250,0.00,VWS V14.01,2013-07-10 08:43:00,
2013-07-10 03:48:00,76.2,69.2,29.91,North,350,3.0,5.0,79,0.00,,FEW250,0.00,VWS V14.01,2013-07-10 08:48:00,
2013-07-10 03:53:00,76.1,69.1,29.92,North,9,0.0,2.0,79,0.00,,FEW250,0.00,VWS V14.01,2013-07-10 08:53:00,
2013-07-10 03:58:00,76.0,69.0,29.92,NNE,12,1.0,3.0,79,0.00,,FEW250,0.00,VWS V14.01,2013-07-10 08:58:00,
2013-07-10 04:03:00,75.9,68.9,29.92,North,4,4.0,4.0,79,0.00,,FEW250,0.00,VWS V14.01,2013-07-10 09:03:00,
2013-07-10 04:08:00,75.8,68.8,29.93,NNE,12,2.0,3.0,79,0.00,,FEW250,0.00,VWS V14.01,2013-07-10 09:08:00,
2013-07-10 04:13:00,75.7,69.1,29.92,NNE,12,2.0,4.0,80,0.00,,FEW250,0.00,VWS V14.01,2013-07-10 09:13:00,
2013-07-10 04:18:00,75.6,69.0,29.92,North,4,3.0,4.0,80,0.00,,FEW250,0.00,VWS V14.01,2013-07-10 09:18:00,
2013-07-10 04:23:00,75.4,68.8,29.92,NE,34,2.0,3.0,80,0.00,,FEW250,0.00,VWS V14.01,2013-07-10 09:23:00,
2013-07-10 04:28:00,75.3,68.7,29.92,NNE,20,4.0,4.0,80,0.00,,FEW250,0.00,VWS V14.01,2013-07-10 09:28:00,
2013-07-10 04:33:00,75.1,68.9,29.92,NNE,19,1.0,4.0,81,0.00,,FEW250,0.00,VWS V14.01,2013-07-10 09:33:00,
2013-07-10 04:38:00,75.0,68.8,29.92,North,9,3.0,4.0,81,0.00,,FEW250,0.00,VWS V14.01,2013-07-10 09:38:00,
2013-07-10 04:43:00,75.0,68.8,29.92,North,8,4.0,5.0,81,0.00,,FEW250,0.00,VWS V14.01,2013-07-10 09:43:00,
2013-07-10 04:48:00,74.9,68.7,29.92,North,4,5.0,5.0,81,0.00,,FEW250,0.00,VWS V14.01,2013-07-10 09:48:00,
2013-07-10 04:53:00,74.8,68.9,29.92,North,10,4.0,5.0,82,0.00,,FEW250,0.00,VWS V14.01,2013-07-10 09:53:00,
2013-07-10 04:58:00,74.6,68.8,29.92,North,4,2.0,6.0,82,0.00,,FEW250,0.00,VWS V14.01,2013-07-10 09:58:00,
2013-07-10 05:03:00,74.5,68.7,29.92,North,8,3.0,6.0,82,0.00,,FEW250,0.00,VWS V14.01,2013-07-10 10:03:00,
2013-07-10 05:08:00,74.4,68.6,29.92,North,11,8.0,8.0,82,0.00,,FEW250,0.00,VWS V14.01,2013-07-10 10:08:00,
2013-07-10 05:13:00,74.4,68.6,29.92,NE,41,4.0,6.0,82,0.00,,FEW250,0.00,VWS V14.01,2013-07-10 10:13:00,
2013-07-10 05:18:00,74.4,68.6,29.93,North,4,4.0,8.0,82,0.00,,FEW250,0.00,VWS V14.01,2013-07-10 10:18:00,
2013-07-10 05:23:00,74.3,68.4,29.93,NE,39,2.0,6.0,82,0.00,,FEW250,0.00,VWS V14.01,2013-07-10 10:23:00,
2013-07-10 05:28:00,74.2,68.4,29.93,North,4,0.0,3.0,82,0.00,,FEW250,0.00,VWS V14.01,2013-07-10 10:28:00,
2013-07-10 05:33:00,74.2,68.4,29.94,North,8,1.0,1.0,82,0.00,,FEW250,0.00,VWS V14.01,2013-07-10 10:33:00,
2013-07-10 05:38:00,74.1,68.3,29.94,North,11,0.0,2.0,82,0.00,,FEW250,0.00,VWS V14.01,2013-07-10 10:38:00,
2013-07-10 05:43:00,74.0,68.5,29.94,North,11,0.0,0.0,83,0.00,,FEW250,0.00,VWS V14.01,2013-07-10 10:43:00,
2013-07-10 05:48:00,73.9,68.1,29.94,North,4,1.0,1.0,82,0.00,,FEW250,0.00,VWS V14.01,2013-07-10 10:48:00,
2013-07-10 05:53:00,73.9,68.4,29.94,NNE,21,0.0,3.0,83,0.00,,FEW250,0.00,VWS V14.01,2013-07-10 10:53:00,
2013-07-10 05:58:00,73.8,68.0,29.94,North,8,3.0,4.0,82,0.00,,FEW250,0.00,VWS V14.01,2013-07-10 10:58:00,
2013-07-10 06:03:00,73.6,67.8,29.94,NNE,22,9.0,9.0,82,0.00,,FEW250,0.00,VWS V14.01,2013-07-10 11:03:00,
2013-07-10 06:08:00,73.4,67.9,29.94,North,4,4.0,5.0,83,0.00,,FEW250,0.00,VWS V14.01,2013-07-10 11:08:00,
2013-07-10 06:13:00,73.2,67.7,29.93,NNW,348,4.0,7.0,83,0.00,,FEW250,0.00,VWS V14.01,2013-07-10 11:13:00,
2013-07-10 06:18:00,73.1,67.6,29.93,North,4,2.0,7.0,83,0.00,,FEW250,0.00,VWS V14.01,2013-07-10 11:18:00,
2013-07-10 06:23:00,72.9,67.4,29.93,North,11,7.0,7.0,83,0.00,,FEW250,0.00,VWS V14.01,2013-07-10 11:23:00,
2013-07-10 06:28:00,72.8,67.7,29.93,North,354,4.0,8.0,84,0.00,,FEW250,0.00,VWS V14.01,2013-07-10 11:28:00,
2013-07-10 06:33:00,72.7,67.6,29.93,NNE,21,5.0,7.0,84,0.00,,FEW250,0.00,VWS V14.01,2013-07-10 11:33:00,
2013-07-10 06:39:00,72.7,67.2,29.94,North,359,9.0,9.0,83,0.00,,FEW250,0.00,VWS V14.01,2013-07-10 11:39:00,
2013-07-10 06:44:00,72.8,67.3,29.93,North,354,9.0,12.0,83,0.00,,FEW250,0.00,VWS V14.01,2013-07-10 11:44:00,
2013-07-10 06:49:00,72.8,67.3,29.93,NNE,25,8.0,11.0,83,0.00,,FEW250,0.00,VWS V14.01,2013-07-10 11:49:00,
2013-07-10 06:54:00,72.7,67.2,29.94,North,359,6.0,10.0,83,0.00,,FEW250,0.00,VWS V14.01,2013-07-10 11:54:00,
2013-07-10 06:59:00,72.6,67.2,29.94,North,4,2.0,12.0,83,0.00,,FEW250,0.00,VWS V14.01,2013-07-10 11:59:00,
2013-07-10 07:04:00,72.6,67.2,29.94,North,4,8.0,10.0,83,0.00,,FEW250,0.00,VWS V14.01,2013-07-10 12:04:00,
2013-07-10 07:09:00,72.7,67.2,29.94,North,359,6.0,8.0,83,0.00,,FEW250,0.00,VWS V14.01,2013-07-10 12:09:00,
2013-07-10 07:14:00,72.7,67.2,29.94,NNE,16,10.0,10.0,83,0.00,,FEW250,0.00,VWS V14.01,2013-07-10 12:14:00,
2013-07-10 07:19:00,72.7,67.2,29.93,NNE,16,6.0,8.0,83,0.00,,FEW250,0.00,VWS V14.01,2013-07-10 12:19:00,
2013-07-10 07:24:00,72.7,67.2,29.93,NNE,12,2.0,8.0,83,0.00,,FEW250,0.00,VWS V14.01,2013-07-10 12:24:00,
2013-07-10 07:29:00,72.8,67.3,29.93,NNE,21,5.0,9.0,83,0.00,,FEW250,0.00,VWS V14.01,2013-07-10 12:29:00,
2013-07-10 07:34:00,72.9,67.4,29.93,North,8,3.0,11.0,83,0.00,,FEW250,0.00,VWS V14.01,2013-07-10 12:34:00,
2013-07-10 07:39:00,72.9,67.4,29.93,North,4,4.0,7.0,83,0.00,,FEW250,0.00,VWS V14.01,2013-07-10 12:39:00,
2013-07-10 07:44:00,72.9,67.4,29.93,NNE,24,3.0,5.0,83,0.00,,FEW250,0.00,VWS V14.01,2013-07-10 12:44:00,
2013-07-10 07:49:00,72.8,67.3,29.94,North,349,4.0,8.0,83,0.00,,FEW250,0.00,VWS V14.01,2013-07-10 12:49:00,
2013-07-10 07:54:00,73.0,67.5,29.94,North,4,6.0,6.0,83,0.00,,FEW250,0.00,VWS V14.01,2013-07-10 12:54:00,
2013-07-10 07:59:00,73.5,68.0,29.94,North,4,6.0,7.0,83,0.00,,FEW250,0.00,VWS V14.01,2013-07-10 12:59:00,
2013-07-10 08:04:00,73.8,68.0,29.94,NNE,18,5.0,5.0,82,0.00,,FEW250,0.00,VWS V14.01,2013-07-10 13:04:00,
2013-07-10 08:09:00,73.7,67.5,29.95,NNE,17,2.0,6.0,81,0.00,,FEW250,0.00,VWS V14.01,2013-07-10 13:09:00,
2013-07-10 08:14:00,73.8,67.6,29.95,NNE,21,3.0,7.0,81,0.00,,FEW250,0.00,VWS V14.01,2013-07-10 13:14:00,
2013-07-10 08:19:00,73.9,67.3,29.95,NNE,19,3.0,7.0,80,0.00,,FEW250,0.00,VWS V14.01,2013-07-10 13:19:00,
2013-07-10 08:24:00,74.1,67.2,29.95,NNE,25,4.0,7.0,79,0.00,,FEW250,0.00,VWS V14.01,2013-07-10 13:24:00,
2013-07-10 08:29:00,74.3,67.0,29.95,ENE,77,2.0,6.0,78,0.00,,FEW250,0.00,VWS V14.01,2013-07-10 13:29:00,
2013-07-10 08:34:00,74.8,67.5,29.95,NNE,16,1.0,4.0,78,0.00,,FEW250,0.00,VWS V14.01,2013-07-10 13:34:00,
2013-07-10 08:39:00,75.0,67.3,29.96,North,4,5.0,8.0,77,0.00,,FEW250,0.00,VWS V14.01,2013-07-10 13:39:00,
2013-07-10 08:44:00,75.2,67.1,29.96,NNE,18,4.0,8.0,76,0.00,,FEW250,0.00,VWS V14.01,2013-07-10 13:44:00,
2013-07-10 08:49:00,75.5,67.4,29.96,NE,41,2.0,3.0,76,0.00,,FEW250,0.00,VWS V14.01,2013-07-10 13:49:00,
2013-07-10 08:54:00,76.0,67.1,29.96,North,359,1.0,7.0,74,0.00,,FEW250,0.00,VWS V14.01,2013-07-10 13:54:00,
2013-07-10 08:59:00,75.7,67.2,29.96,NNE,21,1.0,5.0,75,0.00,,FEW250,0.00,VWS V14.01,2013-07-10 13:59:00,
2013-07-10 09:04:00,76.1,67.2,29.97,NNE,31,3.0,8.0,74,0.00,,FEW250,0.00,VWS V14.01,2013-07-10 14:04:00,
2013-07-10 09:09:00,76.1,67.2,29.97,NE,52,2.0,7.0,74,0.00,,FEW250,0.00,VWS V14.01,2013-07-10 14:09:00,
2013-07-10 09:15:00,76.6,67.3,29.97,ENE,57,0.0,2.0,73,0.00,,FEW250,0.00,VWS V14.01,2013-07-10 14:15:00,
2013-07-10 09:20:00,77.1,67.4,29.97,North,4,8.0,9.0,72,0.00,,FEW250,0.00,VWS V14.01,2013-07-10 14:20:00,
2013-07-10 09:25:00,76.4,66.3,29.97,NNE,27,5.0,6.0,71,0.00,,FEW250,0.00,VWS V14.01,2013-07-10 14:25:00,
2013-07-10 09:30:00,76.2,66.1,29.97,North,354,4.0,8.0,71,0.00,,FEW250,0.00,VWS V14.01,2013-07-10 14:30:00,
2013-07-10 09:35:00,76.2,66.1,29.97,NNE,23,1.0,8.0,71,0.00,,SCT250,0.00,VWS V14.01,2013-07-10 14:35:00,
2013-07-10 09:40:00,76.4,65.9,29.98,NNE,28,2.0,5.0,70,0.00,,SCT250,0.00,VWS V14.01,2013-07-10 14:40:00,
2013-07-10 09:45:00,77.0,65.2,29.98,NNE,33,5.0,10.0,67,0.00,,SCT250,0.00,VWS V14.01,2013-07-10 14:45:00,
2013-07-10 09:50:00,76.9,66.0,29.98,NNE,12,5.0,5.0,69,0.00,,SCT250,0.00,VWS V14.01,2013-07-10 14:50:00,
2013-07-10 09:55:00,76.8,65.4,29.97,North,4,5.0,7.0,68,0.00,,SCT250,0.00,VWS V14.01,2013-07-10 14:55:00,
2013-07-10 10:00:00,76.8,65.9,29.98,East,89,1.0,3.0,69,0.00,,SCT250,0.00,VWS V14.01,2013-07-10 15:00:00,
2013-07-10 10:05:00,77.3,65.5,29.98,NNE,21,3.0,9.0,67,0.00,,SCT250,0.00,VWS V14.01,2013-07-10 15:05:00,
2013-07-10 10:10:00,77.4,66.0,29.98,North,4,7.0,8.0,68,0.00,,SCT250,0.00,VWS V14.01,2013-07-10 15:10:00,
2013-07-10 10:15:00,77.3,65.5,29.98,North,350,5.0,7.0,67,0.00,,SCT250,0.00,VWS V14.01,2013-07-10 15:15:00,
2013-07-10 10:20:00,77.2,65.4,29.98,East,89,3.0,5.0,67,0.00,,SCT250,0.00,VWS V14.01,2013-07-10 15:20:00,
2013-07-10 10:25:00,77.3,65.5,29.98,NNE,13,6.0,11.0,67,0.00,,SCT250,0.00,VWS V14.01,2013-07-10 15:25:00,
2013-07-10 10:30:00,77.6,66.2,29.99,NNE,27,1.0,3.0,68,0.00,,SCT250,0.00,VWS V14.01,2013-07-10 15:30:00,
2013-07-10 10:35:00,78.5,66.6,29.99,North,354,5.0,7.0,67,0.00,,SCT250,0.00,VWS V14.01,2013-07-10 15:35:00,
2013-07-10 10:40:00,78.3,66.0,29.99,NE,40,2.0,7.0,66,0.00,,SCT250,0.00,VWS V14.01,2013-07-10 15:40:00,
2013-07-10 10:45:00,78.1,65.8,29.99,NNE,31,3.0,9.0,66,0.00,,CLR,0.00,VWS V14.01,2013-07-10 15:45:00,
2013-07-10 10:50:00,78.6,66.7,29.99,NE,39,2.0,3.0,67,0.00,,CLR,0.00,VWS V14.01,2013-07-10 15:50:00,
2013-07-10 10:55:00,79.3,67.0,29.99,East,96,0.0,3.0,66,0.00,,CLR,0.00,VWS V14.01,2013-07-10 15:55:00,
2013-07-10 11:00:00,79.8,67.4,29.99,NE,43,1.0,6.0,66,0.00,,CLR,0.00,VWS V14.01,2013-07-10 16:00:00,
2013-07-10 11:05:00,80.2,66.0,29.99,NE,43,1.0,4.0,62,0.00,,CLR,0.00,VWS V14.01,2013-07-10 16:05:00,
2013-07-10 11:10:00,80.4,66.2,30.00,East,91,3.0,8.0,62,0.00,,CLR,0.00,VWS V14.01,2013-07-10 16:10:00,
2013-07-10 11:15:00,80.3,66.1,29.99,NE,39,2.0,5.0,62,0.00,,CLR,0.00,VWS V14.01,2013-07-10 16:15:00,
2013-07-10 11:20:00,80.0,66.3,30.00,NNE,18,1.0,3.0,63,0.00,,CLR,0.00,VWS V14.01,2013-07-10 16:20:00,
2013-07-10 11:25:00,80.2,66.5,30.00,NE,56,3.0,6.0,63,0.00,,CLR,0.00,VWS V14.01,2013-07-10 16:25:00,
2013-07-10 11:30:00,80.5,66.8,30.00,North,354,4.0,7.0,63,0.00,,CLR,0.00,VWS V14.01,2013-07-10 16:30:00,
2013-07-10 11:35:00,80.5,66.3,30.00,ENE,66,3.0,6.0,62,0.00,,FEW250,0.00,VWS V14.01,2013-07-10 16:35:00,
2013-07-10 11:40:00,80.6,65.9,30.00,NNE,28,0.0,6.0,61,0.00,,FEW250,0.00,VWS V14.01,2013-07-10 16:40:00,
2013-07-10 11:45:00,80.6,65.9,30.01,North,4,7.0,9.0,61,0.00,,FEW250,0.00,VWS V14.01,2013-07-10 16:45:00,
2013-07-10 11:50:00,80.0,65.8,30.00,East,84,1.0,5.0,62,0.00,,FEW250,0.00,VWS V14.01,2013-07-10 16:50:00,
2013-07-10 11:55:00,80.4,65.7,30.00,ENE,61,0.0,7.0,61,0.00,,FEW250,0.00,VWS V14.01,2013-07-10 16:55:00,
2013-07-10 12:00:00,80.9,65.2,30.01,ENE,77,3.0,5.0,59,0.00,,FEW250,0.00,VWS V14.01,2013-07-10 17:00:00,
2013-07-10 12:05:00,81.2,65.5,30.01,North,11,11.0,11.0,59,0.00,,FEW250,0.00,VWS V14.01,2013-07-10 17:05:00,
2013-07-10 12:10:00,80.7,64.6,30.01,NNW,345,6.0,10.0,58,0.00,,FEW250,0.00,VWS V14.01,2013-07-10 17:10:00,
2013-07-10 12:15:00,80.5,65.8,30.01,NE,41,3.0,8.0,61,0.00,,FEW250,0.00,VWS V14.01,2013-07-10 17:15:00,
2013-07-10 12:20:00,80.4,65.3,30.01,NNE,23,5.0,9.0,60,0.00,,FEW250,0.00,VWS V14.01,2013-07-10 17:20:00,
2013-07-10 12:25:00,80.5,66.8,30.01,ENE,64,1.0,2.0,63,0.00,,FEW250,0.00,VWS V14.01,2013-07-10 17:25:00,
2013-07-10 12:31:00,81.4,66.7,30.01,ENE,73,1.0,3.0,61,0.00,,FEW250,0.00,VWS V14.01,2013-07-10 17:31:00,
2013-07-10 12:36:00,81.9,67.1,30.00,NNE,30,1.0,6.0,61,0.00,,FEW250,0.00,VWS V14.01,2013-07-10 17:36:00,
2013-07-10 12:41:00,82.2,66.0,30.00,ENE,73,2.0,3.0,58,0.00,,SCT250,0.00,VWS V14.01,2013-07-10 17:41:00,
2013-07-10 12:46:00,82.5,65.8,30.00,NNE,16,2.0,4.0,57,0.00,,SCT250,0.00,VWS V14.01,2013-07-10 17:46:00,
2013-07-10 12:51:00,82.5,65.8,30.01,East,85,1.0,3.0,57,0.00,,SCT250,0.00,VWS V14.01,2013-07-10 17:51:00,
2013-07-10 12:56:00,83.0,67.2,30.01,North,8,2.0,3.0,59,0.00,,SCT250,0.00,VWS V14.01,2013-07-10 17:56:00,
2013-07-10 13:01:00,83.0,66.2,30.01,NNE,12,0.0,5.0,57,0.00,,SCT250,0.00,VWS V14.01,2013-07-10 18:01:00,
2013-07-10 13:06:00,83.4,66.1,30.01,North,8,5.0,5.0,56,0.00,,SCT250,0.00,VWS V14.01,2013-07-10 18:06:00,
2013-07-10 13:11:00,83.2,66.4,30.01,NNE,12,4.0,6.0,57,0.00,,SCT250,0.00,VWS V14.01,2013-07-10 18:11:00,
2013-07-10 13:16:00,82.7,66.9,30.01,NNE,23,0.0,2.0,59,0.00,,SCT250,0.00,VWS V14.01,2013-07-10 18:16:00,
2013-07-10 13:21:00,83.0,66.2,30.01,North,10,0.0,2.0,57,0.00,,SCT250,0.00,VWS V14.01,2013-07-10 18:21:00,
2013-07-10 13:26:00,83.0,66.2,30.01,NE,50,0.0,6.0,57,0.00,,SCT250,0.00,VWS V14.01,2013-07-10 18:26:00,
2013-07-10 13:31:00,82.9,66.6,30.01,North,349,5.0,9.0,58,0.00,,SCT250,0.00,VWS V14.01,2013-07-10 18:31:00,
2013-07-10 13:36:00,82.6,66.3,30.01,NE,52,1.0,5.0,58,0.00,,SCT250,0.00,VWS V14.01,2013-07-10 18:36:00,
2013-07-10 13:41:00,83.0,66.2,30.01,ENE,65,2.0,6.0,57,0.00,,SCT250,0.00,VWS V14.01,2013-07-10 18:41:00,
2013-07-10 13:46:00,83.5,66.2,30.00,SW,235,0.0,5.0,56,0.00,,SCT250,0.00,VWS V14.01,2013-07-10 18:46:00,
2013-07-10 13:51:00,83.6,66.3,30.01,ESE,118,3.0,5.0,56,0.00,,SCT250,0.00,VWS V14.01,2013-07-10 18:51:00,
2013-07-10 13:56:00,83.5,66.7,30.01,NNE,28,2.0,2.0,57,0.00,,SCT250,0.00,VWS V14.01,2013-07-10 18:56:00,
2013-07-10 14:01:00,84.1,67.7,30.01,North,9,5.0,7.0,58,0.00,,SCT250,0.00,VWS V14.01,2013-07-10 19:01:00,
2013-07-10 14:06:00,84.2,65.8,30.01,East,87,2.0,3.0,54,0.00,,SCT250,0.00,VWS V14.01,2013-07-10 19:06:00,
2013-07-10 14:11:00,84.0,66.1,30.01,East,95,3.0,5.0,55,0.00,,SCT250,0.00,VWS V14.01,2013-07-10 19:11:00,
2013-07-10 14:16:00,84.2,66.3,30.01,NE,51,0.0,1.0,55,0.00,,SCT250,0.00,VWS V14.01,2013-07-10 19:16:00,
2013-07-10 14:21:00,84.6,66.1,30.01,ESE,108,3.0,4.0,54,0.00,,SCT250,0.00,VWS V14.01,2013-07-10 19:21:00,
2013-07-10 14:26:00,84.7,66.2,30.01,North,354,2.0,5.0,54,0.00,,SCT250,0.00,VWS V14.01,2013-07-10 19:26:00,
2013-07-10 14:31:00,84.6,67.2,30.01,North,4,1.0,4.0,56,0.00,,SCT250,0.00,VWS V14.01,2013-07-10 19:31:00,
2013-07-10 14:36:00,84.1,65.7,30.01,North,359,5.0,7.0,54,0.00,,SCT250,0.00,VWS V14.01,2013-07-10 19:36:00,
2013-07-10 14:41:00,83.7,65.3,30.00,North,4,4.0,6.0,54,0.00,,SCT250,0.00,VWS V14.01,2013-07-10 19:41:00,
2013-07-10 14:46:00,83.7,66.3,30.00,NE,48,0.0,1.0,56,0.00,,SCT250,0.00,VWS V14.01,2013-07-10 19:46:00,
2013-07-10 14:51:00,84.2,65.2,30.01,North,10,4.0,8.0,53,0.00,,SCT250,0.00,VWS V14.01,2013-07-10 19:51:00,
2013-07-10 14:56:00,83.9,66.0,30.00,NE,45,0.0,4.0,55,0.00,,SCT250,0.00,VWS V14.01,2013-07-10 19:56:00,
2013-07-10 15:01:00,84.5,65.5,30.00,NE,48,3.0,7.0,53,0.00,,SCT250,0.00,VWS V14.01,2013-07-10 20:01:00,
2013-07-10 15:06:00,84.8,65.8,30.00,NNE,32,3.0,4.0,53,0.00,,SCT250,0.00,VWS V14.01,2013-07-10 20:06:00,
2013-07-10 15:11:00,85.0,65.4,30.00,North,8,1.0,3.0,52,0.00,,SCT250,0.00,VWS V14.01,2013-07-10 20:11:00,
2013-07-10 15:16:00,84.7,66.2,30.00,East,91,2.0,4.0,54,0.00,,SCT250,0.00,VWS V14.01,2013-07-10 20:16:00,
2013-07-10 15:21:00,84.5,66.1,29.99,North,354,5.0,6.0,54,0.00,,SCT250,0.00,VWS V14.01,2013-07-10 20:21:00,
2013-07-10 15:26:00,84.4,64.9,29.99,NNE,26,4.0,9.0,52,0.00,,SCT250,0.00,VWS V14.01,2013-07-10 20:26:00,
2013-07-10 15:31:00,84.0,66.1,29.99,NNE,12,5.0,5.0,55,0.00,,SCT250,0.00,VWS V14.01,2013-07-10 20:31:00,
2013-07-10 15:36:00,83.8,65.9,29.98,North,8,2.0,5.0,55,0.00,,SCT250,0.00,VWS V14.01,2013-07-10 20:36:00,
2013-07-10 15:42:00,84.4,65.9,29.98,NE,56,1.0,2.0,54,0.00,,SCT250,0.00,VWS V14.01,2013-07-10 20:42:00,
2013-07-10 15:47:00,85.2,65.6,29.98,ENE,67,1.0,3.0,52,0.00,,SCT250,0.00,VWS V14.01,2013-07-10 20:47:00,
2013-07-10 15:52:00,85.4,65.2,29.98,ESE,102,0.0,1.0,51,0.00,,SCT250,0.00,VWS V14.01,2013-07-10 20:52:00,
2013-07-10 15:57:00,85.6,66.0,29.99,North,4,0.0,2.0,52,0.00,,SCT250,0.00,VWS V14.01,2013-07-10 20:57:00,
2013-07-10 16:02:00,84.7,64.6,29.98,NNE,16,3.0,6.0,51,0.00,,SCT250,0.00,VWS V14.01,2013-07-10 21:02:00,
2013-07-10 16:07:00,84.0,64.5,29.98,North,8,1.0,1.0,52,0.00,,SCT250,0.00,VWS V14.01,2013-07-10 21:07:00,
2013-07-10 16:12:00,84.1,65.7,29.98,North,4,2.0,3.0,54,0.00,,SCT250,0.00,VWS V14.01,2013-07-10 21:12:00,
2013-07-10 16:17:00,84.3,64.8,29.98,NNE,17,1.0,2.0,52,0.00,,SCT250,0.00,VWS V14.01,2013-07-10 21:17:00,
2013-07-10 16:22:00,85.0,66.0,29.98,North,354,3.0,5.0,53,0.00,,SCT250,0.00,VWS V14.01,2013-07-10 21:22:00,
2013-07-10 16:27:00,84.7,65.7,29.98,North,354,0.0,0.0,53,0.00,,SCT250,0.00,VWS V14.01,2013-07-10 21:27:00,
2013-07-10 16:32:00,84.5,65.5,29.98,NNW,345,1.0,4.0,53,0.00,,SCT250,0.00,VWS V14.01,2013-07-10 21:32:00,
2013-07-10 16:37:00,84.2,65.2,29.98,NNE,14,3.0,5.0,53,0.00,,SCT250,0.00,VWS V14.01,2013-07-10 21:37:00,
2013-07-10 16:42:00,83.8,65.4,29.98,North,8,2.0,4.0,54,0.00,,SCT250,0.00,VWS V14.01,2013-07-10 21:42:00,
2013-07-10 16:47:00,83.8,65.9,29.98,North,8,0.0,1.0,55,0.00,,SCT250,0.00,VWS V14.01,2013-07-10 21:47:00,
2013-07-10 16:52:00,83.8,66.4,29.98,North,4,2.0,2.0,56,0.00,,SCT250,0.00,VWS V14.01,2013-07-10 21:52:00,
2013-07-10 16:57:00,83.6,65.2,29.98,North,8,1.0,4.0,54,0.00,,SCT250,0.00,VWS V14.01,2013-07-10 21:57:00,
2013-07-10 17:02:00,83.4,66.1,29.97,North,8,1.0,2.0,56,0.00,,SCT250,0.00,VWS V14.01,2013-07-10 22:02:00,
2013-07-10 17:07:00,83.4,65.6,29.97,North,8,0.0,3.0,55,0.00,,SCT250,0.00,VWS V14.01,2013-07-10 22:07:00,
2013-07-10 17:12:00,83.3,64.9,29.97,NNE,21,3.0,3.0,54,0.00,,SCT250,0.00,VWS V14.01,2013-07-10 22:12:00,
2013-07-10 17:17:00,83.2,65.9,29.97,NNE,20,0.0,3.0,56,0.00,,SCT250,0.00,VWS V14.01,2013-07-10 22:17:00,
2013-07-10 17:22:00,83.2,66.4,29.97,NNE,21,2.0,2.0,57,0.00,,SCT250,0.00,VWS V14.01,2013-07-10 22:22:00,
2013-07-10 17:27:00,83.1,66.3,29.97,NNE,19,6.0,6.0,57,0.00,,SCT250,0.00,VWS V14.01,2013-07-10 22:27:00,
2013-07-10 17:32:00,82.5,64.7,29.96,North,359,0.0,5.0,55,0.00,,BKN250,0.00,VWS V14.01,2013-07-10 22:32:00,
2013-07-10 17:37:00,82.4,66.2,29.96,NNE,14,1.0,3.0,58,0.00,,BKN250,0.00,VWS V14.01,2013-07-10 22:37:00,
2013-07-10 17:42:00,82.1,65.4,29.96,NNW,340,5.0,6.0,57,0.00,,BKN250,0.00,VWS V14.01,2013-07-10 22:42:00,
2013-07-10 17:47:00,81.6,65.4,29.95,North,9,2.0,4.0,58,0.00,,BKN250,0.00,VWS V14.01,2013-07-10 22:47:00,
2013-07-10 17:52:00,81.5,65.3,29.95,North,4,5.0,5.0,58,0.00,,BKN250,0.00,VWS V14.01,2013-07-10 22:52:00,
2013-07-10 17:57:00,81.4,66.2,29.95,North,354,1.0,1.0,60,0.00,,BKN250,0.00,VWS V14.01,2013-07-10 22:57:00,
2013-07-10 18:02:00,81.4,65.7,29.96,NNE,23,3.0,5.0,59,0.00,,BKN250,0.00,VWS V14.01,2013-07-10 23:02:00,
2013-07-10 18:07:00,81.3,64.6,29.96,North,4,4.0,6.0,57,0.00,,BKN250,0.00,VWS V14.01,2013-07-10 23:07:00,
2013-07-10 18:12:00,81.0,64.8,29.95,North,359,3.0,4.0,58,0.00,,BKN250,0.00,VWS V14.01,2013-07-10 23:12:00,
2013-07-10 18:17:00,81.0,64.8,29.95,North,359,0.0,2.0,58,0.00,,BKN250,0.00,VWS V14.01,2013-07-10 23:17:00,
2013-07-10 18:22:00,81.1,64.9,29.96,North,4,3.0,4.0,58,0.00,,BKN250,0.00,VWS V14.01,2013-07-10 23:22:00,
2013-07-10 18:27:00,81.1,65.4,29.96,NNE,29,0.0,3.0,59,0.00,,BKN250,0.00,VWS V14.01,2013-07-10 23:27:00,
2013-07-10 18:32:00,81.0,64.8,29.96,North,354,2.0,3.0,58,0.00,,BKN250,0.00,VWS V14.01,2013-07-10 23:32:00,
2013-07-10 18:37:00,80.8,64.2,29.95,NNE,12,3.0,5.0,57,0.00,,BKN250,0.00,VWS V14.01,2013-07-10 23:37:00,
2013-07-10 18:42:00,80.7,65.5,29.95,North,359,2.0,2.0,60,0.00,,BKN250,0.00,VWS V14.01,2013-07-10 23:42:00,
2013-07-10 18:47:00,80.6,65.0,29.95,North,4,2.0,4.0,59,0.00,,BKN250,0.00,VWS V14.01,2013-07-10 23:47:00,
2013-07-10 18:52:00,80.3,65.2,29.95,North,4,0.0,1.0,60,0.00,,BKN250,0.00,VWS V14.01,2013-07-10 23:52:00,
2013-07-10 18:57:00,80.2,65.5,29.95,North,4,0.0,3.0,61,0.00,,BKN250,0.00,VWS V14.01,2013-07-10 23:57:00,
2013-07-10 19:02:00,80.3,65.6,29.94,North,4,0.0,1.0,61,0.00,,BKN250,0.00,VWS V14.01,2013-07-11 00:02:00,
2013-07-10 19:07:00,80.4,66.2,29.94,North,4,0.0,1.0,62,0.00,,BKN250,0.00,VWS V14.01,2013-07-11 00:07:00,
2013-07-10 19:13:00,80.6,65.9,29.93,ENE,58,0.0,0.0,61,0.00,,SCT250,0.00,VWS V14.01,2013-07-11 00:13:00,
2013-07-10 19:18:00,80.7,66.0,29.93,ENE,74,1.0,1.0,61,0.00,,SCT250,0.00,VWS V14.01,2013-07-11 00:18:00,
2013-07-10 19:23:00,80.8,65.2,29.93,NE,43,1.0,3.0,59,0.00,,SCT250,0.00,VWS V14.01,2013-07-11 00:23:00,
2013-07-10 19:28:00,80.2,65.5,29.93,North,10,2.0,7.0,61,0.00,,SCT250,0.00,VWS V14.01,2013-07-11 00:28:00,
2013-07-10 19:33:00,79.7,65.5,29.93,North,4,4.0,5.0,62,0.00,,SCT250,0.00,VWS V14.01,2013-07-11 00:33:00,
2013-07-10 19:38:00,79.4,65.3,29.93,NNE,13,2.0,4.0,62,0.00,,SCT250,0.00,VWS V14.01,2013-07-11 00:38:00,
2013-07-10 19:43:00,79.3,65.6,29.93,NNE,14,2.0,2.0,63,0.00,,SCT250,0.00,VWS V14.01,2013-07-11 00:43:00,
2013-07-10 19:48:00,79.1,65.0,29.92,North,8,1.0,3.0,62,0.00,,SCT250,0.00,VWS V14.01,2013-07-11 00:48:00,
2013-07-10 19:53:00,79.0,65.3,29.92,North,8,1.0,1.0,63,0.00,,SCT250,0.00,VWS V14.01,2013-07-11 00:53:00,
2013-07-10 19:58:00,78.9,65.7,29.92,North,8,0.0,1.0,64,0.00,,SCT250,0.00,VWS V14.01,2013-07-11 00:58:00,
2013-07-10 20:03:00,78.7,66.0,29.92,North,8,0.0,1.0,65,0.00,,SCT250,0.00,VWS V14.01,2013-07-11 01:03:00,
2013-07-10 20:08:00,78.4,66.1,29.92,NNE,19,0.0,4.0,66,0.00,,SCT250,0.00,VWS V14.01,2013-07-11 01:08:00,
2013-07-10 20:13:00,78.2,66.4,29.92,NNE,18,1.0,2.0,67,0.00,,SCT250,0.00,VWS V14.01,2013-07-11 01:13:00,
2013-07-10 20:18:00,77.9,66.5,29.92,NNE,18,0.0,0.0,68,0.00,,SCT250,0.00,VWS V14.01,2013-07-11 01:18:00,
2013-07-10 20:23:00,77.6,66.2,29.92,NNE,18,0.0,0.0,68,0.00,,SCT250,0.00,VWS V14.01,2013-07-11 01:23:00,
2013-07-10 20:28:00,77.3,66.3,29.93,NNE,18,0.0,0.0,69,0.00,,SCT250,0.00,VWS V14.01,2013-07-11 01:28:00,
2013-07-10 20:33:00,77.1,66.6,29.93,NNE,18,0.0,0.0,70,0.00,,FEW250,0.00,VWS V14.01,2013-07-11 01:33:00,
2013-07-10 20:38:00,76.8,66.7,29.93,NNE,18,0.0,0.0,71,0.00,,FEW250,0.00,VWS V14.01,2013-07-11 01:38:00,
2013-07-10 20:43:00,76.5,66.8,29.93,NNE,18,0.0,0.0,72,0.00,,FEW250,0.00,VWS V14.01,2013-07-11 01:43:00,
2013-07-10 20:48:00,76.2,66.1,29.93,NNE,18,0.0,1.0,71,0.00,,FEW250,0.00,VWS V14.01,2013-07-11 01:48:00,
2013-07-10 20:53:00,76.0,66.3,29.94,NNE,18,0.0,0.0,72,0.00,,FEW250,0.00,VWS V14.01,2013-07-11 01:53:00,
2013-07-10 20:58:00,75.6,65.5,29.94,NNE,18,0.0,0.0,71,0.00,,FEW250,0.00,VWS V14.01,2013-07-11 01:58:00,
2013-07-10 21:03:00,75.2,66.0,29.94,NNE,18,0.0,0.0,73,0.00,,FEW250,0.00,VWS V14.01,2013-07-11 02:03:00,
2013-07-10 21:08:00,74.9,65.7,29.94,NNE,18,0.0,0.0,73,0.00,,FEW250,0.00,VWS V14.01,2013-07-11 02:08:00,
2013-07-10 21:13:00,74.7,65.1,29.94,NNE,18,0.0,0.0,72,0.00,,FEW250,0.00,VWS V14.01,2013-07-11 02:13:00,
2013-07-10 21:18:00,74.6,65.4,29.95,NNE,18,0.0,0.0,73,0.00,,FEW250,0.00,VWS V14.01,2013-07-11 02:18:00,
2013-07-10 21:23:00,74.4,65.6,29.95,NNE,18,0.0,1.0,74,0.00,,FEW250,0.00,VWS V14.01,2013-07-11 02:23:00,
2013-07-10 21:28:00,74.3,65.5,29.95,NNE,18,0.0,0.0,74,0.00,,FEW250,0.00,VWS V14.01,2013-07-11 02:28:00,
2013-07-10 21:33:00,74.2,65.0,29.95,NNE,18,0.0,0.0,73,0.00,,FEW250,0.00,VWS V14.01,2013-07-11 02:33:00,
2013-07-10 21:38:00,74.2,64.6,29.95,NNE,18,0.0,0.0,72,0.00,,FEW250,0.00,VWS V14.01,2013-07-11 02:38:00,
2013-07-10 21:43:00,74.1,64.9,29.95,NNE,18,0.0,0.0,73,0.00,,FEW250,0.00,VWS V14.01,2013-07-11 02:43:00,
2013-07-10 21:48:00,73.8,64.6,29.96,NNE,18,0.0,0.0,73,0.00,,FEW250,0.00,VWS V14.01,2013-07-11 02:48:00,
2013-07-10 21:53:00,73.6,64.8,29.96,NNE,18,0.0,0.0,74,0.00,,FEW250,0.00,VWS V14.01,2013-07-11 02:53:00,
2013-07-10 21:58:00,73.2,64.8,29.96,NNE,18,0.0,1.0,75,0.00,,FEW250,0.00,VWS V14.01,2013-07-11 02:58:00,
2013-07-10 22:03:00,72.9,64.5,29.96,NNE,18,0.0,1.0,75,0.00,,FEW250,0.00,VWS V14.01,2013-07-11 03:03:00,
2013-07-10 22:08:00,72.7,63.9,29.96,NNE,18,0.0,0.0,74,0.00,,FEW250,0.00,VWS V14.01,2013-07-11 03:08:00,
2013-07-10 22:14:00,72.7,64.3,29.97,NNE,18,0.0,0.0,75,0.00,,FEW250,0.00,VWS V14.01,2013-07-11 03:14:00,
2013-07-10 22:19:00,72.5,64.5,29.97,NNE,18,0.0,0.0,76,0.00,,FEW250,0.00,VWS V14.01,2013-07-11 03:19:00,
2013-07-10 22:24:00,72.2,64.2,29.97,NNE,18,0.0,1.0,76,0.00,,FEW250,0.00,VWS V14.01,2013-07-11 03:24:00,
2013-07-10 22:29:00,71.8,64.2,29.97,NNE,18,1.0,1.0,77,0.00,,FEW250,0.00,VWS V14.01,2013-07-11 03:29:00,
2013-07-10 22:34:00,71.6,64.0,29.97,NNE,18,0.0,0.0,77,0.00,,FEW250,0.00,VWS V14.01,2013-07-11 03:34:00,
2013-07-10 22:39:00,71.5,63.5,29.97,NNE,18,0.0,0.0,76,0.00,,FEW250,0.00,VWS V14.01,2013-07-11 03:39:00,
2013-07-10 22:44:00,71.5,63.9,29.97,NNE,18,0.0,0.0,77,0.00,,FEW250,0.00,VWS V14.01,2013-07-11 03:44:00,
2013-07-10 22:49:00,71.4,64.2,29.97,NNE,18,0.0,0.0,78,0.00,,FEW250,0.00,VWS V14.01,2013-07-11 03:49:00,
2013-07-10 22:54:00,71.3,64.5,29.97,NNE,18,0.0,1.0,79,0.00,,FEW250,0.00,VWS V14.01,2013-07-11 03:54:00,
2013-07-10 22:59:00,71.3,64.1,29.97,NNE,18,1.0,2.0,78,0.00,,FEW250,0.00,VWS V14.01,2013-07-11 03:59:00,
2013-07-10 23:01:00,71.4,63.8,29.98,NNE,18,0.0,1.0,77,0.00,,FEW250,0.00,VWS V14.01,2013-07-11 04:01:00,
2013-07-10 23:06:00,71.5,63.9,29.98,NNE,18,0.0,0.0,77,0.00,,FEW250,0.00,VWS V14.01,2013-07-11 04:06:00,
2013-07-10 23:11:00,71.4,64.2,29.98,SSE,158,0.0,1.0,78,0.00,,FEW250,0.00,VWS V14.01,2013-07-11 04:11:00,
2013-07-10 23:16:00,71.0,64.2,29.98,SSE,158,0.0,0.0,79,0.00,,FEW250,0.00,VWS V14.01,2013-07-11 04:16:00,
2013-07-10 23:21:00,70.6,64.1,29.99,SSE,158,0.0,1.0,80,0.00,,FEW250,0.00,VWS V14.01,2013-07-11 04:21:00,
2013-07-10 23:26:00,70.1,64.0,29.98,SSE,158,0.0,0.0,81,0.00,,FEW250,0.00,VWS V14.01,2013-07-11 04:26:00,
2013-07-10 23:31:00,69.7,64.0,29.99,SSE,158,0.0,1.0,82,0.00,,FEW250,0.00,VWS V14.01,2013-07-11 04:31:00,
2013-07-10 23:36:00,69.6,63.9,29.99,SSE,158,0.0,1.0,82,0.00,,FEW250,0.00,VWS V14.01,2013-07-11 04:36:00,
2013-07-10 23:41:00,69.7,64.0,29.99,SSE,158,0.0,0.0,82,0.00,,FEW250,0.00,VWS V14.01,2013-07-11 04:41:00,
2013-07-10 23:46:00,69.7,64.0,29.99,SSE,158,0.0,1.0,82,0.00,,FEW250,0.00,VWS V14.01,2013-07-11 04:46:00,
2013-07-10 23:51:00,69.6,63.9,29.99,SSE,158,0.0,1.0,82,0.00,,FEW250,0.00,VWS V14.01,2013-07-11 04:51:00,
2013-07-10 23:56:00,69.8,63.7,29.99,SSE,158,0.0,0.0,81,0.00,,FEW250,0.00,VWS V14.01,2013-07-11 04:56:00,